AirNav   Everest Fuels
 
 382 users online  

3NY9 Hilltop Airport
Colden, New York, USA

GOING TO COLDEN?


FAA INFORMATION EFFECTIVE 18 JUNE 2020

Location

FAA Identifier: 3NY9
Lat/Long: 42-39-52.0000N 078-40-23.0000W
42-39.866667N 078-40.383333W
42.6644444,-78.6730556
(estimated)
Elevation: 1385 ft. / 422 m (estimated)
Variation: 11W (2000)
From city: 2 miles N of COLDEN, NY
Time zone: UTC -4 (UTC -5 during Standard Time)
Zip code: 14033

Airport Operations

Airport use: Private use. Permission required prior to landing
Activation date: 06/2002
Control tower: no
ARTCC: CLEVELAND CENTER
FSS: BUFFALO FLIGHT SERVICE STATION
Attendance: UNATNDD
Wind indicator: yes
Segmented circle: no

Airport Communications

WX ASOS at BUF (17 nm N): PHONE 716-635-0532

Nearby radio navigation aids

VOR radial/distance  VOR name  Freq  Var
BUFr192/15.9BUFFALO VOR/DME116.4008W
JHWr042/34.8JAMESTOWN VOR/DME114.7007W

 
NDB name  Hdg/Dist  Freq  Var  ID
PLAZZ162/14.120409WGB --. -...

Airport Services

Runway Information

Runway 1/19

Dimensions: 1800 x 50 ft. / 549 x 15 m
Surface: turf
RUNWAY 1  RUNWAY 19
Traffic pattern: leftleft
Obstructions: 40 ft. trees, 300 ft. from runway55 ft. trees, 250 ft. from runway

Airport Ownership and Management from official FAA records

Ownership: Privately-owned
Owner: GARY A. GLASSBRENNER II
8659 FINCH RD.
COLDEN, NY 14033
Phone 716-830-2121
Manager: GARY A. GLASSBRENNER II
8659 FINCH RD.
COLDEN, NY 14033
Phone 716-830-2121

Additional Remarks

FOR CD CTC CLEVELAND ARTCC AT 440-774-0490.

Instrument Procedures

There are no published instrument procedures at 3NY9.

Some nearby airports with instrument procedures:

9G0 - Buffalo Airfield (12 nm N)
KBUF - Buffalo Niagara International Airport (17 nm N)
9G3 - Akron Airport/Jesson Field (23 nm N)
KDKK - Chautauqua County/Dunkirk Airport (28 nm W)
KOLE - Cattaraugus County-Olean Airport (29 nm SE)
 
Loc | Ops | Rwys | IFR | FBO | Links
Com | Nav | Svcs | Stats | Notes
Area around 3NY9 (Hilltop Airport)
 
Road maps at: MapQuest Bing Google
 
Aerial photo
No photo
 
Sectional chart

 
Airport distance calculator
Flying to Hilltop Airport? Find the distance to fly.

From to 3NY9

Sunrise and sunset
Times for 13-Jul-2020
 Local
(UTC-4)
 Zulu
(UTC)
Morning civil twilight05:1609:16
Sunrise05:5009:50
Sunset20:5100:51
Evening civil twilight21:2501:25

Current date and time
Zulu (UTC)  13-Jul-2020 06:10:06
Local (UTC-4)  13-Jul-2020 02:10:06
 
METAR
KBUF 
16nm N 
130554Z 29004KT 10SM FEW042 SCT070 21/16 A2981 RMK AO2 SLP090 T02110161 10244 20211 53005 $
CWPC 
28nm NW 
130500Z AUTO 31008KT 20/16 RMK AO1 SLP097 T02010157 52008
KDKK 
29nm W 
130553Z AUTO 29007KT 10SM OVC031 22/14 A2984 RMK AO2 SLP099 T02220144 10244 20200 53005 $
KOLE 
29nm SE 
130555Z AUTO 00000KT 10SM CLR 14/14 A2988 RMK AO2
KIAG 
29nm NW 
130553Z AUTO 26005KT 10SM FEW070 18/17 A2981 RMK AO2 SLP089 60002 T01830172 10239 20183 53006
KGVQ 
31nm NE 
130556Z AUTO 24005KT 10SM FEW050 18/17 A2982 RMK AO2 SLP092 T01830167 10228 20183 51005
TAF
KBUF 
16nm N 
130530Z 1306/1406 29004KT P6SM BKN080 FM131200 27007KT P6SM BKN080 FM131700 29010KT P6SM BKN060 FM140100 31004KT P6SM SCT080
NOTAMs
Click for the latest NOTAMs
NOTAMs are issued by the DoD/FAA and will open in a separate window not controlled by AirNav.

 

 
 

Would you like to see your business listed on this page?

 If your business provides an interesting product or service to pilots, flight crews, aircraft, or users of the Hilltop Airport, you should consider listing it here.  To start the listing process, click on the button below
 
Add a business
 

Other Pages about Hilltop Airport

Update a link
 
Copyright © AirNav, LLC. All rights reserved. Privacy Policy  Contact